AirNav   Pilot Hours Calculator
 
 469 users online  

LA58 UMCNO Heliport
New Orleans, Louisiana, USA

GOING TO NEW ORLEANS?


FAA INFORMATION EFFECTIVE 08 SEPTEMBER 2022

Location

FAA Identifier: LA58
Lat/Long: 29-57-33.6600N 090-04-57.8300W
29-57.561000N 090-04.963833W
29.9593500,-90.0827306
(estimated)
Elevation: 69 ft. / 21 m (estimated)
Time zone: UTC -5 (UTC -6 during Standard Time)
Zip code: 70112

Heliport Operations

Heliport use: Private use. Permission required prior to landing
Activation date: 04/2015
Control tower: no
ARTCC: HOUSTON CENTER
FSS: DE RIDDER FLIGHT SERVICE STATION
Attendance: 
Wind indicator: yes
Segmented circle: yes
Lights: SS-SR
Beacon: white-green-yellow (heliport)

Heliport Communications

CTAF/UNICOM: 123.05
WX ASOS at NEW (6 nm NE): PHONE 504-245-4366
WX ASOS at MSY (9 nm W): PHONE (504)471-4486

Nearby radio navigation aids

VOR radial/distance  VOR name  Freq  Var
HRVr326/7.8HARVEY VORTAC114.1002E
RQRr104/27.4RESERVE VOR/DME110.8002E

Heliport Services

Runway Information

Helipad H1

Dimensions: 59 x 59 ft. / 18 x 18 m
Surface: mats
Latitude: 29-57.561000N
Longitude: 090-04.963833W
Elevation: 69.0 ft.
Traffic pattern: leftleft

Heliport Ownership and Management from official FAA records

Ownership: Privately-owned
Owner: NEW ORLEANS MEDICAL CENTER
2000 CANAL STREET
NEW ORLEANS, LA 70112
Phone 504-903-3000
Manager: CARY BECKER
2000 CANAL STREET
NEW ORLEANS, LA 70112
Phone 504-903-3322

Additional Remarks

FOR CD CTC NEW ORLEANS APCH AT 504-471-4350.

Instrument Procedures

There are no published instrument procedures at LA58.

Some nearby airports with instrument procedures:

KNEW - Lakefront Airport (6 nm NE)
KNBG - New Orleans Naval Air Station Joint Reserve Base - Alvin Callender Field (8 nm S)
KMSY - Louis Armstrong New Orleans International Airport (9 nm W)
KASD - Slidell Airport (27 nm NE)
KAPS - Port of South Louisiana Executive Regional Airport (27 nm W)
 
Loc | Ops | Rwys | IFR | FBO | Links
Com | Nav | Svcs | Stats | Notes
Aerial photo
No photo
 
Airport distance calculator
Flying to UMCNO Heliport? Find the distance to fly.

From to LA58

Sunrise and sunset
Times for 02-Oct-2022
 Local
(UTC-5)
 Zulu
(UTC)
Morning civil twilight06:3111:31
Sunrise06:5511:55
Sunset18:4423:44
Evening civil twilight19:0800:08

Current date and time
Zulu (UTC)  02-Oct-2022 10:51:47
Local (UTC-5)  02-Oct-2022 05:51:47
 
METAR
K7N0 020956Z AUTO VRB03KT 10SM CLR 19/13 A3004 RMK AO2 SLP171 T01940128 PNO $
KNEW 
6nm NE 
020953Z AUTO 03011KT 10SM CLR 21/13 A3003 RMK AO2 SLP162 T02110128
KMSY 
9nm W 
020953Z 34003KT 10SM CLR 15/14 A3003 RMK AO2 SLP171 T01500139
KNBG 
9nm S 
012155Z 34008KT 10SM CLR 28/09 A2994 RMK AO2 SLP136 T02780089 $
TAF
KNEW 
6nm NE 
020521Z 0206/0306 02012KT P6SM SKC FM021500 02008KT P6SM SKC FM021900 34006KT P6SM SKC FM030100 01015KT P6SM FEW250
KMSY 
9nm W 
020521Z 0206/0312 VRB04KT P6SM SKC FM021500 01008KT P6SM FEW250 FM030200 36005KT P6SM FEW250
KNBG 
9nm S 
0207/0307 01008KT 9999 SKC QNH3003INS BECMG 0215/0217 VRB05KT 9999 SKC QNH3008INS T16/0212Z T26/0221Z FN00253
NOTAMs
Click for the latest NOTAMs
NOTAMs are issued by the DoD/FAA and will open in a separate window not controlled by AirNav.

 

 
 

Would you like to see your business listed on this page?

 If your business provides an interesting product or service to pilots, flight crews, aircraft, or users of the UMCNO Heliport, you should consider listing it here.  To start the listing process, click on the button below
 
Add a business
 

Other Pages about UMCNO Heliport

Update a link
 
Copyright © AirNav, LLC. All rights reserved. Privacy Policy  Contact